createdAt,value
2022-10-06T00:01:10.311Z,100975.47
2022-10-06T00:03:32.781Z,100973.34
2022-10-06T00:06:02.377Z,100975.47
2022-10-06T00:08:24.975Z,100983.81
2022-10-06T00:10:47.579Z,100980.56
2022-10-06T00:13:10.055Z,100993.44
2022-10-06T00:15:33.030Z,100979.56
2022-10-06T00:17:56.349Z,100987.09
2022-10-06T00:20:18.929Z,100978.13
2022-10-06T00:22:44.104Z,100977.19
2022-10-06T00:25:07.077Z,100984.34
2022-10-06T00:27:41.042Z,100969.63
2022-10-06T00:30:05.143Z,100983.34
2022-10-06T00:32:27.502Z,100982.41
2022-10-06T00:34:49.840Z,100987.97
2022-10-06T00:37:12.204Z,100992.84
2022-10-06T00:39:34.668Z,100995.97
2022-10-06T00:41:57.092Z,100988.78
2022-10-06T00:44:19.488Z,100980.44
2022-10-06T00:46:53.524Z,100981.94
2022-10-06T00:49:35.777Z,100981.78
2022-10-06T00:52:05.828Z,100989.63
2022-10-06T00:54:28.672Z,101002.34
2022-10-06T00:56:50.976Z,100992.03
2022-10-06T00:59:15.477Z,100999.06
2022-10-06T01:01:38.035Z,100996.94
2022-10-06T01:04:05.473Z,100995.97
2022-10-06T01:06:27.919Z,100988.28
2022-10-06T01:08:50.300Z,100993.81
2022-10-06T01:11:14.475Z,100995.00
2022-10-06T01:13:36.919Z,101002.31
2022-10-06T01:16:22.703Z,101002.00
2022-10-06T01:18:45.236Z,100996.13
2022-10-06T01:21:14.945Z,100991.25
2022-10-06T01:23:37.453Z,101000.03
2022-10-06T01:25:59.930Z,101003.47
2022-10-06T01:28:22.366Z,100995.50
2022-10-06T01:30:52.839Z,100997.09
2022-10-06T01:33:15.367Z,100997.09
2022-10-06T01:35:38.085Z,101002.66
2022-10-06T01:38:00.466Z,101004.59
2022-10-06T01:40:22.902Z,101002.66
2022-10-06T01:42:45.231Z,100995.97
2022-10-06T01:45:08.191Z,101007.38
2022-10-06T01:47:30.588Z,101001.81
2022-10-06T01:49:53.015Z,100996.28
2022-10-06T01:52:15.354Z,100994.00
2022-10-06T01:54:37.798Z,100989.28
2022-10-06T01:57:00.183Z,100994.66
2022-10-06T01:59:22.824Z,101002.34
2022-10-06T02:01:45.206Z,101003.47
2022-10-06T02:04:07.993Z,101008.53
2022-10-06T02:06:30.506Z,101002.47
2022-10-06T02:08:52.966Z,101008.38
2022-10-06T02:11:15.380Z,101016.19
2022-10-06T02:13:38.142Z,101014.06
2022-10-06T02:16:00.653Z,101014.06
2022-10-06T02:18:23.005Z,101019.59
2022-10-06T02:20:45.462Z,101012.44
2022-10-06T02:23:07.847Z,101024.66
2022-10-06T02:25:30.219Z,101021.06
2022-10-06T02:27:54.060Z,101021.06
2022-10-06T02:30:16.658Z,101021.91
2022-10-06T02:32:40.355Z,101024.84
2022-10-06T02:35:03.910Z,101024.19
2022-10-06T02:37:26.357Z,101017.00
2022-10-06T02:39:48.809Z,101022.06
2022-10-06T02:42:11.228Z,101027.91
2022-10-06T02:44:33.677Z,101025.66
2022-10-06T02:46:56.413Z,101026.78
2022-10-06T02:49:18.946Z,101032.00
2022-10-06T02:51:41.403Z,101028.75
2022-10-06T02:54:03.896Z,101036.75
2022-10-06T02:56:26.589Z,101039.34
2022-10-06T02:58:50.404Z,101043.41
2022-10-06T03:01:26.329Z,101048.97
2022-10-06T03:03:48.724Z,101047.00
2022-10-06T03:06:23.953Z,101044.72
2022-10-06T03:08:46.319Z,101057.59
2022-10-06T03:11:08.718Z,101055.63
2022-10-06T03:13:31.358Z,101062.66
2022-10-06T03:15:53.868Z,101052.22
2022-10-06T03:18:16.369Z,101066.06
2022-10-06T03:20:38.773Z,101061.00
2022-10-06T03:23:01.179Z,101068.50
2022-10-06T03:25:23.624Z,101063.78
2022-10-06T03:27:46.007Z,101072.09
2022-10-06T03:30:09.759Z,101072.91
2022-10-06T03:32:32.116Z,101078.47
2022-10-06T03:34:54.516Z,101070.47
2022-10-06T03:37:19.179Z,101088.72
2022-10-06T03:39:41.778Z,101093.13
2022-10-06T03:42:04.291Z,101090.69
2022-10-06T03:44:26.683Z,101100.16
2022-10-06T03:46:49.187Z,101100.78
2022-10-06T03:49:11.690Z,101106.00
2022-10-06T03:51:39.887Z,101101.09
2022-10-06T03:54:02.314Z,101102.09
2022-10-06T03:56:32.991Z,101106.19
2022-10-06T03:58:57.902Z,101112.19
2022-10-06T04:01:32.328Z,101114.00
2022-10-06T04:03:55.714Z,101122.81
2022-10-06T04:06:19.259Z,101124.75
2022-10-06T04:08:41.735Z,101118.72
2022-10-06T04:11:16.067Z,101121.16
2022-10-06T04:13:39.313Z,101120.84
2022-10-06T04:16:31.792Z,101125.41
2022-10-06T04:19:02.047Z,101121.50
2022-10-06T04:21:24.595Z,101114.84
2022-10-06T04:23:47.151Z,101127.53
2022-10-06T04:26:16.355Z,101122.50
2022-10-06T04:28:39.909Z,101130.81
2022-10-06T04:31:02.519Z,101126.06
2022-10-06T04:33:05.180Z,101124.94
2022-10-06T04:35:08.471Z,101129.00
2022-10-06T04:37:10.852Z,101129.53
2022-10-06T04:39:13.115Z,101126.94
2022-10-06T04:41:17.539Z,101137.69
2022-10-06T04:43:19.652Z,101128.72
2022-10-06T04:45:21.696Z,101133.94
2022-10-06T04:47:23.723Z,101136.56
2022-10-06T04:49:25.757Z,101133.97
2022-10-06T04:51:28.252Z,101144.72
2022-10-06T04:53:30.933Z,101140.00
2022-10-06T04:55:32.927Z,101144.09
2022-10-06T04:57:34.995Z,101142.94
2022-10-06T04:59:55.718Z,101146.53
2022-10-06T05:01:58.184Z,101154.38
2022-10-06T05:04:01.358Z,101147.34
2022-10-06T05:06:11.413Z,101153.53
2022-10-06T05:08:13.663Z,101165.47
2022-10-06T05:10:15.821Z,101164.28
2022-10-06T05:12:17.844Z,101166.44
2022-10-06T05:14:19.886Z,101177.22
2022-10-06T05:16:22.417Z,101178.84
2022-10-06T05:18:24.561Z,101180.81
2022-10-06T05:20:26.656Z,101181.81
2022-10-06T05:22:28.890Z,101187.03
2022-10-06T05:24:30.917Z,101174.00
2022-10-06T05:26:34.840Z,101172.34
2022-10-06T05:28:37.462Z,101184.44
2022-10-06T05:31:04.275Z,101188.84
2022-10-06T05:33:07.537Z,101184.91
2022-10-06T05:35:09.931Z,101184.09
2022-10-06T05:37:12.013Z,101208.94
2022-10-06T05:39:23.657Z,101207.63
2022-10-06T05:41:30.570Z,101206.50
2022-10-06T05:43:33.487Z,101203.09
2022-10-06T05:45:35.583Z,101213.84
2022-10-06T05:47:37.689Z,101198.50
2022-10-06T05:49:39.770Z,101215.81
2022-10-06T05:51:41.905Z,101205.69
2022-10-06T05:53:44.391Z,101200.31
2022-10-06T05:55:46.458Z,101221.03
2022-10-06T05:57:48.525Z,101218.13
2022-10-06T05:59:50.593Z,101213.22
2022-10-06T06:01:53.240Z,101230.53
2022-10-06T06:04:03.356Z,101227.25
2022-10-06T06:06:15.329Z,101220.91
2022-10-06T06:08:17.396Z,101215.50
2022-10-06T06:10:19.503Z,101216.31
2022-10-06T06:12:21.605Z,101215.31
2022-10-06T06:14:42.315Z,101224.81
2022-10-06T06:16:44.725Z,101225.25
2022-10-06T06:18:46.909Z,101236.22
2022-10-06T06:20:59.948Z,101231.28
2022-10-06T06:23:02.086Z,101229.00
2022-10-06T06:25:04.377Z,101241.25
2022-10-06T06:27:06.459Z,101228.47
2022-10-06T06:29:08.509Z,101239.25
2022-10-06T06:31:16.269Z,101247.41
2022-10-06T06:33:22.495Z,101265.69
2022-10-06T06:35:24.817Z,101252.41
2022-10-06T06:37:26.898Z,101276.75
2022-10-06T06:39:29.012Z,101271.63
2022-10-06T06:41:33.339Z,101276.00
2022-10-06T06:43:35.635Z,101278.06
2022-10-06T06:45:37.789Z,101276.84
2022-10-06T06:47:39.994Z,101281.75
2022-10-06T06:49:43.131Z,101293.19
2022-10-06T06:51:49.829Z,101273.00
2022-10-06T06:53:53.194Z,101298.84
2022-10-06T06:55:55.268Z,101296.69
2022-10-06T06:57:57.302Z,101294.19
2022-10-06T07:00:08.076Z,101300.41
2022-10-06T07:02:11.956Z,101307.25
2022-10-06T07:04:15.883Z,101293.63
2022-10-06T07:06:18.209Z,101320.44
2022-10-06T07:08:20.471Z,101307.94
2022-10-06T07:10:22.490Z,101326.28
2022-10-06T07:12:25.419Z,101333.97
2022-10-06T07:14:27.435Z,101340.84
2022-10-06T07:16:49.430Z,101342.81
2022-10-06T07:19:10.171Z,101333.09
2022-10-06T07:21:34.180Z,101342.19
2022-10-06T07:23:55.011Z,101339.22
2022-10-06T07:25:57.043Z,101354.09
2022-10-06T07:27:59.123Z,101359.94
2022-10-06T07:30:01.220Z,101358.09
2022-10-06T07:32:03.197Z,101352.97
2022-10-06T07:34:06.573Z,101389.50
2022-10-06T07:36:09.162Z,101377.00
2022-10-06T07:38:27.622Z,101359.69
2022-10-06T07:40:29.632Z,101372.16
2022-10-06T07:42:47.855Z,101375.88
2022-10-06T07:45:08.462Z,101370.91
2022-10-06T07:47:10.674Z,101377.69
2022-10-06T07:49:12.678Z,101391.00
2022-10-06T07:51:17.059Z,101394.97
2022-10-06T07:53:19.156Z,101406.75
2022-10-06T07:55:21.225Z,101391.19
2022-10-06T07:57:23.300Z,101412.94
2022-10-06T07:59:25.307Z,101416.00
2022-10-06T08:01:29.536Z,101411.00
2022-10-06T08:03:32.982Z,101411.59
2022-10-06T08:05:35.013Z,101408.22
2022-10-06T08:07:37.069Z,101413.34
2022-10-06T08:09:39.103Z,101424.84
2022-10-06T08:11:41.206Z,101440.91
2022-10-06T08:13:44.990Z,101422.63
2022-10-06T08:15:49.187Z,101433.59
2022-10-06T08:17:54.172Z,101453.34
2022-10-06T08:19:56.337Z,101440.00
2022-10-06T08:22:02.495Z,101449.78
2022-10-06T08:24:06.960Z,101449.09
2022-10-06T08:26:10.525Z,101442.94
2022-10-06T08:28:13.177Z,101446.66
2022-10-06T08:30:15.226Z,101460.41
2022-10-06T08:32:20.049Z,101466.13
2022-10-06T08:34:22.092Z,101465.75
2022-10-06T08:36:30.853Z,101474.38
2022-10-06T08:38:33.798Z,101464.06
2022-10-06T08:40:35.838Z,101464.41
2022-10-06T08:42:42.566Z,101474.28
2022-10-06T08:45:02.963Z,101498.19
2022-10-06T08:47:27.706Z,101482.22
2022-10-06T08:49:41.014Z,101475.59
2022-10-06T08:51:57.486Z,101486.28
2022-10-06T08:54:12.806Z,101490.13
2022-10-06T08:56:19.254Z,101484.59
2022-10-06T08:58:33.316Z,101507.94
2022-10-06T09:00:37.685Z,101520.97
2022-10-06T09:02:43.809Z,101522.50
2022-10-06T09:04:48.483Z,101518.88
2022-10-06T09:07:14.388Z,101505.84
2022-10-06T09:09:45.798Z,101503.03
2022-10-06T09:12:16.685Z,101532.31
2022-10-06T09:14:37.630Z,101509.06
2022-10-06T09:16:41.055Z,101537.75
2022-10-06T09:19:07.787Z,101545.53
2022-10-06T09:21:36.924Z,101544.13
2022-10-06T09:23:47.648Z,101530.66
2022-10-06T09:25:49.893Z,101530.34
2022-10-06T09:28:00.000Z,101558.09
2022-10-06T09:30:02.715Z,101550.50
2022-10-06T09:32:06.827Z,101548.56
2022-10-06T09:34:39.607Z,101555.66
2022-10-06T09:37:09.277Z,101561.16
2022-10-06T09:39:11.374Z,101572.50
2022-10-06T09:41:13.854Z,101571.91
2022-10-06T09:43:29.305Z,101596.63
2022-10-06T09:45:31.579Z,101585.72
2022-10-06T09:47:45.990Z,101582.84
2022-10-06T09:50:02.850Z,101574.63
2022-10-06T09:52:13.098Z,101590.00
2022-10-06T09:54:15.494Z,101601.41
2022-10-06T09:56:19.402Z,101602.88
2022-10-06T09:58:34.134Z,101607.91
2022-10-06T10:00:56.562Z,101625.72
2022-10-06T10:03:09.716Z,101633.22
2022-10-06T10:05:21.528Z,101613.75
2022-10-06T10:07:28.766Z,101650.16
2022-10-06T10:09:30.837Z,101626.91
2022-10-06T10:11:51.622Z,101631.44
2022-10-06T10:13:53.617Z,101623.50
2022-10-06T10:15:59.646Z,101648.91
2022-10-06T10:18:03.753Z,101629.56
2022-10-06T10:20:39.462Z,101645.47
2022-10-06T10:22:41.514Z,101642.91
2022-10-06T10:25:13.978Z,101646.63
2022-10-06T10:27:33.655Z,101648.84
2022-10-06T10:29:59.617Z,101664.03
2022-10-06T10:32:11.958Z,101651.19
2022-10-06T10:34:44.298Z,101673.00
2022-10-06T10:36:53.273Z,101652.88
2022-10-06T10:38:55.296Z,101666.19
2022-10-06T10:41:20.090Z,101685.91
2022-10-06T10:43:32.100Z,101685.84
2022-10-06T10:45:36.199Z,101692.25
2022-10-06T10:47:39.498Z,101681.13
2022-10-06T10:49:44.465Z,101688.31
2022-10-06T10:51:52.413Z,101690.91
2022-10-06T10:54:03.416Z,101698.72
2022-10-06T10:56:08.022Z,101683.03
2022-10-06T10:58:45.683Z,101695.06
2022-10-06T11:00:52.127Z,101701.34
2022-10-06T11:02:58.534Z,101726.00
2022-10-06T11:05:12.756Z,101687.19
2022-10-06T11:07:39.179Z,101722.09
2022-10-06T11:09:54.121Z,101710.81
2022-10-06T11:12:20.210Z,101730.50
2022-10-06T11:14:43.063Z,101716.03
2022-10-06T11:17:16.303Z,101714.72
2022-10-06T11:19:49.814Z,101714.91
2022-10-06T11:22:47.342Z,101749.00
2022-10-06T11:25:35.221Z,101746.41
2022-10-06T11:28:26.234Z,101746.94
2022-10-06T11:30:30.546Z,101728.31
2022-10-06T11:33:08.028Z,101736.78
2022-10-06T11:35:27.046Z,101748.19
2022-10-06T11:37:54.120Z,101741.69
2022-10-06T11:40:44.675Z,101739.78
2022-10-06T11:43:25.300Z,101754.78
2022-10-06T11:45:59.311Z,101760.03
2022-10-06T11:48:24.351Z,101755.16
2022-10-06T11:50:55.646Z,101744.97
2022-10-06T11:52:57.685Z,101736.00
2022-10-06T11:55:16.235Z,101755.53
2022-10-06T11:57:29.392Z,101767.47
2022-10-06T11:59:32.889Z,101756.66
2022-10-06T12:01:35.215Z,101763.44
2022-10-06T12:03:48.041Z,101770.94
2022-10-06T12:05:56.265Z,101765.47
2022-10-06T12:07:59.214Z,101757.88
2022-10-06T12:10:30.059Z,101764.25
2022-10-06T12:12:33.409Z,101763.75
2022-10-06T12:17:21.443Z,101786.69
2022-10-06T12:19:31.556Z,101794.72
2022-10-06T12:21:50.430Z,101783.13
2022-10-06T12:24:32.318Z,101799.34
2022-10-06T12:26:57.911Z,101780.59
2022-10-06T12:29:23.196Z,101783.66
2022-10-06T12:31:46.607Z,101776.00
2022-10-06T12:33:48.711Z,101792.06
2022-10-06T12:35:50.771Z,101803.56
2022-10-06T12:38:04.678Z,101795.31
2022-10-06T12:40:55.545Z,101779.78
2022-10-06T12:43:21.600Z,101793.34
2022-10-06T12:45:23.705Z,101812.09
2022-10-06T12:47:42.084Z,101807.31
2022-10-06T12:49:54.518Z,101809.19
2022-10-06T12:51:59.040Z,101820.97
2022-10-06T12:54:12.375Z,101813.72
2022-10-06T12:56:42.088Z,101801.13
2022-10-06T12:58:44.125Z,101824.97
2022-10-06T13:00:46.641Z,101811.31
2022-10-06T13:02:48.651Z,101815.75
2022-10-06T13:05:02.947Z,101812.41
2022-10-06T13:07:31.177Z,101802.94
2022-10-06T13:09:33.273Z,101806.63
2022-10-06T13:11:35.443Z,101815.16
2022-10-06T13:13:37.953Z,101826.94
2022-10-06T13:15:41.671Z,101813.09
2022-10-06T13:18:09.835Z,101809.72
2022-10-06T13:20:58.245Z,101828.00
2022-10-06T13:23:25.000Z,101844.69
2022-10-06T13:25:41.502Z,101848.00
2022-10-06T13:27:51.907Z,101856.47
2022-10-06T13:30:21.879Z,101851.13
2022-10-06T13:32:23.961Z,101856.81
2022-10-06T13:34:36.033Z,101848.69
2022-10-06T13:36:39.931Z,101864.09
2022-10-06T13:38:42.213Z,101863.94
2022-10-06T13:40:45.544Z,101854.47
2022-10-06T13:42:47.876Z,101864.69
2022-10-06T13:45:14.277Z,101861.88
2022-10-06T13:47:21.666Z,101860.53
2022-10-06T13:49:33.314Z,101867.03
2022-10-06T13:51:35.459Z,101850.31
2022-10-06T13:53:37.532Z,101855.53
2022-10-06T13:55:39.560Z,101865.38
2022-10-06T13:57:51.935Z,101870.69
2022-10-06T14:00:23.200Z,101869.00
2022-10-06T14:02:32.441Z,101866.78
2022-10-06T14:04:37.402Z,101856.78
2022-10-06T14:07:12.756Z,101864.50
2022-10-06T14:09:21.342Z,101869.75
2022-10-06T14:11:29.818Z,101882.56
2022-10-06T14:13:40.533Z,101865.97
2022-10-06T14:15:53.634Z,101878.66
2022-10-06T14:18:01.600Z,101897.69
2022-10-06T14:20:03.808Z,101872.13
2022-10-06T14:22:06.421Z,101892.19
2022-10-06T14:24:18.981Z,101876.56
2022-10-06T14:26:29.972Z,101888.69
2022-10-06T14:28:32.049Z,101886.66
2022-10-06T14:30:34.071Z,101903.53
2022-10-06T14:32:38.813Z,101899.97
2022-10-06T14:34:42.065Z,101892.59
2022-10-06T14:36:46.321Z,101884.34
2022-10-06T14:38:49.465Z,101912.91
2022-10-06T14:40:51.591Z,101900.53
2022-10-06T14:42:53.625Z,101883.69
2022-10-06T14:44:55.653Z,101916.41
2022-10-06T14:46:57.986Z,101900.13
2022-10-06T14:49:00.485Z,101902.19
2022-10-06T14:51:04.177Z,101908.06
2022-10-06T14:53:06.376Z,101905.75
2022-10-06T14:55:09.149Z,101906.47
2022-10-06T14:57:11.184Z,101908.53
2022-10-06T14:59:17.185Z,101918.44
2022-10-06T15:01:21.880Z,101903.13
2022-10-06T15:03:24.112Z,101907.00
2022-10-06T15:05:26.248Z,101921.41
2022-10-06T15:07:46.501Z,101922.34
2022-10-06T15:09:48.609Z,101927.22
2022-10-06T15:11:51.836Z,101922.81
2022-10-06T15:13:57.013Z,101935.88
2022-10-06T15:15:59.232Z,101934.16
2022-10-06T15:18:03.744Z,101934.69
2022-10-06T15:20:07.462Z,101939.13
2022-10-06T15:22:10.105Z,101940.88
2022-10-06T15:24:14.210Z,101945.38
2022-10-06T15:26:34.426Z,101946.25
2022-10-06T15:28:55.172Z,101947.19
2022-10-06T15:30:57.351Z,101950.03
2022-10-06T15:33:01.763Z,101955.31
2022-10-06T15:35:03.876Z,101950.75
2022-10-06T15:37:05.968Z,101953.56
2022-10-06T15:39:16.388Z,101953.25
2022-10-06T15:41:19.112Z,101960.00
2022-10-06T15:43:41.013Z,101960.81
2022-10-06T15:45:53.868Z,101958.75
2022-10-06T15:47:55.903Z,101962.88
2022-10-06T15:49:57.976Z,101966.03
2022-10-06T15:52:03.288Z,101974.16
2022-10-06T15:54:05.966Z,101977.47
2022-10-06T15:56:09.341Z,101979.66
2022-10-06T15:58:11.394Z,101969.97
2022-10-06T16:00:14.065Z,101985.63
2022-10-06T16:02:17.381Z,101982.66
2022-10-06T16:04:35.622Z,101985.13
2022-10-06T16:06:54.576Z,101990.63
2022-10-06T16:08:56.643Z,101991.50
2022-10-06T16:10:59.529Z,101997.09
2022-10-06T16:13:01.540Z,101999.16
2022-10-06T16:15:03.918Z,102004.50
2022-10-06T16:17:24.847Z,102008.75
2022-10-06T16:19:47.251Z,101997.44
2022-10-06T16:22:13.225Z,102007.91
2022-10-06T16:24:35.553Z,102020.94
2022-10-06T16:26:59.862Z,102014.81
2022-10-06T16:29:22.275Z,102022.22
2022-10-06T16:31:44.724Z,102024.47
2022-10-06T16:34:07.622Z,102031.13
2022-10-06T16:36:30.152Z,102034.75
2022-10-06T16:38:53.684Z,102034.47
2022-10-06T16:41:16.017Z,102041.88
2022-10-06T16:43:43.192Z,102052.41
2022-10-06T16:46:17.351Z,102052.13
2022-10-06T16:48:42.153Z,102060.03
2022-10-06T16:51:26.199Z,102066.13
2022-10-06T16:54:02.898Z,102061.06
2022-10-06T16:56:31.129Z,102072.41
2022-10-06T16:59:01.452Z,102080.28
2022-10-06T17:01:28.813Z,102072.75
2022-10-06T17:04:08.055Z,102075.06
2022-10-06T17:06:31.078Z,102078.03
2022-10-06T17:08:53.636Z,102075.41
2022-10-06T17:11:21.139Z,102077.53
2022-10-06T17:13:45.356Z,102083.75
2022-10-06T17:16:16.294Z,102089.84
2022-10-06T17:18:38.815Z,102088.81
2022-10-06T17:21:11.457Z,102090.28
2022-10-06T17:23:45.254Z,102096.81
2022-10-06T17:26:17.475Z,102095.34
2022-10-06T17:28:42.144Z,102093.19
2022-10-06T17:31:06.039Z,102092.88
2022-10-06T17:33:32.562Z,102098.09
2022-10-06T17:35:54.884Z,102088.56
2022-10-06T17:38:17.225Z,102097.53
2022-10-06T17:40:19.318Z,102100.31
2022-10-06T17:42:21.375Z,102097.16
2022-10-06T17:44:26.405Z,102097.97
2022-10-06T17:46:28.568Z,102098.94
2022-10-06T17:48:30.685Z,102102.84
2022-10-06T17:50:33.259Z,102097.44
2022-10-06T17:52:37.959Z,102097.22
2022-10-06T17:54:41.547Z,102101.66
2022-10-06T17:56:44.137Z,102095.06
2022-10-06T17:58:58.181Z,102091.06
2022-10-06T18:01:05.387Z,102096.66
2022-10-06T18:03:09.073Z,102097.28
2022-10-06T18:05:11.242Z,102098.72
2022-10-06T18:07:13.314Z,102114.75
2022-10-06T18:09:16.004Z,102110.13
2022-10-06T18:11:33.951Z,102110.56
2022-10-06T18:13:36.035Z,102115.94
2022-10-06T18:15:38.189Z,102106.72
2022-10-06T18:17:41.523Z,102119.31
2022-10-06T18:19:44.196Z,102107.97
2022-10-06T18:21:47.874Z,102111.09
2022-10-06T18:23:50.093Z,102105.63
2022-10-06T18:25:52.134Z,102118.56
2022-10-06T18:27:54.963Z,102109.69
2022-10-06T18:29:57.017Z,102116.06
2022-10-06T18:32:25.820Z,102120.25
2022-10-06T18:36:43.554Z,102124.38
2022-10-06T18:38:46.949Z,102131.50
2022-10-06T18:41:03.229Z,102138.00
2022-10-06T18:43:05.294Z,102127.81
2022-10-06T18:45:26.952Z,102129.56
2022-10-06T18:47:48.023Z,102136.38
2022-10-06T18:49:50.290Z,102136.19
2022-10-06T18:51:58.363Z,102135.97
2022-10-06T18:54:03.647Z,102135.19
2022-10-06T18:56:07.259Z,102127.94
2022-10-06T18:58:09.581Z,102135.78
2022-10-06T19:00:12.103Z,102141.97
2022-10-06T19:02:14.292Z,102139.00
2022-10-06T19:04:20.227Z,102148.34
2022-10-06T19:06:24.047Z,102153.53
2022-10-06T19:08:29.397Z,102163.81
2022-10-06T19:10:33.698Z,102158.06
2022-10-06T19:12:35.868Z,102165.69
2022-10-06T19:14:43.034Z,102156.19
2022-10-06T19:16:46.575Z,102167.44
2022-10-06T19:18:48.805Z,102165.88
2022-10-06T19:20:51.720Z,102167.72
2022-10-06T19:22:54.320Z,102166.06
2022-10-06T19:24:56.458Z,102172.84
2022-10-06T19:26:59.246Z,102164.41
2022-10-06T19:29:02.597Z,102170.25
2022-10-06T19:31:08.363Z,102173.75
2022-10-06T19:33:10.500Z,102179.31
2022-10-06T19:35:13.293Z,102177.66
2022-10-06T19:37:15.596Z,102175.88
2022-10-06T19:39:17.820Z,102180.00
2022-10-06T19:41:38.516Z,102183.81
2022-10-06T19:43:40.709Z,102181.38
2022-10-06T19:45:43.125Z,102190.81
2022-10-06T19:47:46.736Z,102187.22
2022-10-06T19:49:49.483Z,102196.88
2022-10-06T19:51:51.856Z,102189.50
2022-10-06T19:53:53.875Z,102191.72
2022-10-06T19:56:01.804Z,102194.72
2022-10-06T19:58:03.847Z,102190.16
2022-10-06T20:00:07.240Z,102196.59
2022-10-06T20:02:10.919Z,102191.16
2022-10-06T20:04:13.180Z,102192.38
2022-10-06T20:06:15.471Z,102200.97
2022-10-06T20:08:17.771Z,102203.03
2022-10-06T20:10:19.878Z,102201.47
2022-10-06T20:12:24.893Z,102204.28
2022-10-06T20:14:27.627Z,102212.00
2022-10-06T20:16:30.972Z,102211.88
2022-10-06T20:18:41.029Z,102213.53
2022-10-06T20:20:43.070Z,102216.16
2022-10-06T20:22:45.535Z,102219.59
2022-10-06T20:24:48.078Z,102211.97
2022-10-06T20:26:50.745Z,102212.47
2022-10-06T20:28:53.443Z,102215.84
2022-10-06T20:30:55.520Z,102216.13
2022-10-06T20:32:58.179Z,102220.88
2022-10-06T20:35:01.966Z,102207.06
2022-10-06T20:37:05.141Z,102212.94
2022-10-06T20:39:34.890Z,102217.56
2022-10-06T20:41:36.946Z,102210.44
2022-10-06T20:43:39.384Z,102215.16
2022-10-06T20:45:41.577Z,102226.53
2022-10-06T20:47:43.818Z,102226.00
2022-10-06T20:49:46.070Z,102228.56
2022-10-06T20:51:52.184Z,102229.91
2022-10-06T20:53:54.490Z,102223.53
2022-10-06T20:55:56.606Z,102220.25
2022-10-06T20:57:58.693Z,102220.00
2022-10-06T21:00:00.733Z,102225.69
2022-10-06T21:02:03.453Z,102211.84
2022-10-06T21:04:05.599Z,102230.81
2022-10-06T21:06:07.674Z,102221.72
2022-10-06T21:08:09.747Z,102229.28
2022-10-06T21:10:11.926Z,102228.75
2022-10-06T21:12:15.671Z,102222.97
2022-10-06T21:14:18.284Z,102228.19
2022-10-06T21:16:21.671Z,102237.13
2022-10-06T21:18:28.071Z,102232.47
2022-10-06T21:20:30.153Z,102228.88
2022-10-06T21:22:32.337Z,102226.16
2022-10-06T21:24:34.469Z,102228.13
2022-10-06T21:26:38.654Z,102227.63
2022-10-06T21:28:41.170Z,102222.91
2022-10-06T21:30:44.281Z,102219.66
2022-10-06T21:32:46.455Z,102221.06
2022-10-06T21:34:48.620Z,102234.41
2022-10-06T21:37:09.131Z,102231.13
2022-10-06T21:39:29.730Z,102225.03
2022-10-06T21:41:52.127Z,102233.66
2022-10-06T21:44:16.549Z,102235.59
2022-10-06T21:46:47.383Z,102232.59
2022-10-06T21:49:11.390Z,102235.66
2022-10-06T21:51:33.929Z,102235.94
2022-10-06T21:53:57.044Z,102243.72
2022-10-06T21:56:20.001Z,102234.34
2022-10-06T21:58:42.424Z,102229.88
2022-10-06T22:01:05.985Z,102227.97
2022-10-06T22:03:28.403Z,102226.59
2022-10-06T22:05:50.880Z,102240.19
2022-10-06T22:08:13.454Z,102236.03
2022-10-06T22:10:35.893Z,102232.19
2022-10-06T22:12:58.263Z,102228.34
2022-10-06T22:15:20.724Z,102227.25
2022-10-06T22:17:43.359Z,102226.41
2022-10-06T22:20:06.953Z,102231.69
2022-10-06T22:22:29.353Z,102221.19
2022-10-06T22:24:51.716Z,102222.56
2022-10-06T22:27:14.079Z,102223.72
2022-10-06T22:29:36.521Z,102219.28
2022-10-06T22:31:58.982Z,102209.88
2022-10-06T22:34:21.483Z,102222.63
2022-10-06T22:36:43.870Z,102216.84
2022-10-06T22:39:06.404Z,102216.28
2022-10-06T22:41:28.893Z,102216.56
2022-10-06T22:43:58.269Z,102216.06
2022-10-06T22:46:20.728Z,102223.81
2022-10-06T22:48:43.181Z,102222.38
2022-10-06T22:51:06.013Z,102215.25
2022-10-06T22:53:31.009Z,102223.34
2022-10-06T22:55:53.465Z,102219.75
2022-10-06T22:58:16.199Z,102216.72
2022-10-06T23:00:38.747Z,102216.47
2022-10-06T23:03:01.202Z,102226.16
2022-10-06T23:05:23.670Z,102216.78
2022-10-06T23:07:46.735Z,102220.09
2022-10-06T23:10:09.535Z,102222.59
2022-10-06T23:12:31.921Z,102219.00
2022-10-06T23:14:54.271Z,102230.91
2022-10-06T23:17:16.624Z,102220.66
2022-10-06T23:19:38.982Z,102225.69
2022-10-06T23:22:01.348Z,102219.31
2022-10-06T23:24:23.707Z,102220.16
2022-10-06T23:26:47.181Z,102224.84
2022-10-06T23:29:10.354Z,102225.16
2022-10-06T23:31:32.778Z,102229.59
2022-10-06T23:33:55.377Z,102219.72
2022-10-06T23:36:18.032Z,102224.69
2022-10-06T23:38:40.631Z,102226.63
2022-10-06T23:41:03.145Z,102221.09
2022-10-06T23:43:25.593Z,102216.13
2022-10-06T23:45:48.023Z,102219.47
2022-10-06T23:48:10.537Z,102223.63
2022-10-06T23:50:32.898Z,102221.16
2022-10-06T23:52:55.239Z,102232.22
2022-10-06T23:55:17.645Z,102221.19
2022-10-06T23:57:40.053Z,102228.69
